sensor_id;sensor_type;location;lat;lon;timestamp;P1;durP1;ratioP1;P2;durP2;ratioP2
76204;SDS011;64986;55.672;37.628;2023-07-09T00:00:46;12.48;;;5.40;;
76204;SDS011;64986;55.672;37.628;2023-07-09T00:03:12;17.48;;;5.55;;
76204;SDS011;64986;55.672;37.628;2023-07-09T00:05:37;13.88;;;5.90;;
76204;SDS011;64986;55.672;37.628;2023-07-09T00:08:03;10.43;;;4.55;;
76204;SDS011;64986;55.672;37.628;2023-07-09T00:10:28;15.85;;;5.63;;
76204;SDS011;64986;55.672;37.628;2023-07-09T00:12:53;11.10;;;4.95;;
76204;SDS011;64986;55.672;37.628;2023-07-09T00:15:19;9.80;;;6.28;;
76204;SDS011;64986;55.672;37.628;2023-07-09T00:17:44;10.73;;;5.75;;
76204;SDS011;64986;55.672;37.628;2023-07-09T00:20:14;7.03;;;4.68;;
76204;SDS011;64986;55.672;37.628;2023-07-09T00:22:42;12.25;;;4.80;;
76204;SDS011;64986;55.672;37.628;2023-07-09T00:25:13;10.27;;;4.68;;
76204;SDS011;64986;55.672;37.628;2023-07-09T00:27:41;7.38;;;5.30;;
76204;SDS011;64986;55.672;37.628;2023-07-09T00:30:13;7.72;;;4.22;;
76204;SDS011;64986;55.672;37.628;2023-07-09T00:32:40;7.07;;;4.72;;
76204;SDS011;64986;55.672;37.628;2023-07-09T00:35:08;9.00;;;4.13;;
76204;SDS011;64986;55.672;37.628;2023-07-09T00:37:34;6.53;;;4.32;;
76204;SDS011;64986;55.672;37.628;2023-07-09T00:39:59;7.20;;;4.38;;
76204;SDS011;64986;55.672;37.628;2023-07-09T00:42:24;7.25;;;3.72;;
76204;SDS011;64986;55.672;37.628;2023-07-09T00:44:51;7.97;;;4.60;;
76204;SDS011;64986;55.672;37.628;2023-07-09T00:49:52;6.50;;;4.57;;
76204;SDS011;64986;55.672;37.628;2023-07-09T00:52:32;7.55;;;3.97;;
76204;SDS011;64986;55.672;37.628;2023-07-09T00:55:00;6.78;;;4.30;;
76204;SDS011;64986;55.672;37.628;2023-07-09T00:57:28;7.65;;;4.10;;
76204;SDS011;64986;55.672;37.628;2023-07-09T00:59:56;7.95;;;4.18;;
76204;SDS011;64986;55.672;37.628;2023-07-09T01:02:22;10.27;;;4.35;;
76204;SDS011;64986;55.672;37.628;2023-07-09T01:04:57;9.98;;;3.95;;
76204;SDS011;64986;55.672;37.628;2023-07-09T01:07:26;6.03;;;4.20;;
76204;SDS011;64986;55.672;37.628;2023-07-09T01:09:51;9.13;;;4.22;;
76204;SDS011;64986;55.672;37.628;2023-07-09T01:12:16;8.65;;;5.40;;
76204;SDS011;64986;55.672;37.628;2023-07-09T01:14:43;6.88;;;3.75;;
76204;SDS011;64986;55.672;37.628;2023-07-09T01:17:13;6.90;;;4.00;;
76204;SDS011;64986;55.672;37.628;2023-07-09T01:19:40;6.88;;;3.85;;
76204;SDS011;64986;55.672;37.628;2023-07-09T01:22:10;6.93;;;4.40;;
76204;SDS011;64986;55.672;37.628;2023-07-09T01:27:13;7.75;;;4.07;;
76204;SDS011;64986;55.672;37.628;2023-07-09T01:29:39;7.53;;;4.25;;
76204;SDS011;64986;55.672;37.628;2023-07-09T01:32:04;6.20;;;4.20;;
76204;SDS011;64986;55.672;37.628;2023-07-09T01:34:31;7.25;;;4.85;;
76204;SDS011;64986;55.672;37.628;2023-07-09T01:36:57;8.77;;;4.60;;
76204;SDS011;64986;55.672;37.628;2023-07-09T01:39:22;11.23;;;4.57;;
76204;SDS011;64986;55.672;37.628;2023-07-09T01:41:48;6.05;;;4.10;;
76204;SDS011;64986;55.672;37.628;2023-07-09T01:44:13;6.82;;;4.40;;
76204;SDS011;64986;55.672;37.628;2023-07-09T01:46:39;5.93;;;3.88;;
76204;SDS011;64986;55.672;37.628;2023-07-09T01:49:04;7.53;;;3.97;;
76204;SDS011;64986;55.672;37.628;2023-07-09T01:51:32;11.13;;;4.65;;
76204;SDS011;64986;55.672;37.628;2023-07-09T01:53:58;11.95;;;4.72;;
76204;SDS011;64986;55.672;37.628;2023-07-09T01:56:25;10.80;;;5.50;;
76204;SDS011;64986;55.672;37.628;2023-07-09T01:58:50;9.10;;;5.03;;
76204;SDS011;64986;55.672;37.628;2023-07-09T02:01:15;10.27;;;5.05;;
76204;SDS011;64986;55.672;37.628;2023-07-09T02:03:41;6.85;;;4.75;;
76204;SDS011;64986;55.672;37.628;2023-07-09T02:06:07;8.30;;;5.15;;
76204;SDS011;64986;55.672;37.628;2023-07-09T02:08:34;8.57;;;4.38;;
76204;SDS011;64986;55.672;37.628;2023-07-09T02:10:59;10.32;;;5.20;;
76204;SDS011;64986;55.672;37.628;2023-07-09T02:13:25;10.02;;;4.82;;
76204;SDS011;64986;55.672;37.628;2023-07-09T02:15:50;11.10;;;4.85;;
76204;SDS011;64986;55.672;37.628;2023-07-09T02:18:15;12.45;;;5.75;;
76204;SDS011;64986;55.672;37.628;2023-07-09T02:20:40;15.00;;;5.70;;
76204;SDS011;64986;55.672;37.628;2023-07-09T02:23:06;7.45;;;5.32;;
76204;SDS011;64986;55.672;37.628;2023-07-09T02:25:32;11.00;;;5.18;;
76204;SDS011;64986;55.672;37.628;2023-07-09T02:27:57;8.52;;;4.63;;
76204;SDS011;64986;55.672;37.628;2023-07-09T02:30:23;10.27;;;5.28;;
76204;SDS011;64986;55.672;37.628;2023-07-09T02:32:48;9.88;;;5.45;;
76204;SDS011;64986;55.672;37.628;2023-07-09T02:35:14;10.68;;;5.32;;
76204;SDS011;64986;55.672;37.628;2023-07-09T02:37:39;10.60;;;5.28;;
76204;SDS011;64986;55.672;37.628;2023-07-09T02:40:04;16.63;;;6.30;;
76204;SDS011;64986;55.672;37.628;2023-07-09T02:42:30;12.45;;;5.45;;
76204;SDS011;64986;55.672;37.628;2023-07-09T02:44:55;9.18;;;5.35;;
76204;SDS011;64986;55.672;37.628;2023-07-09T02:47:20;13.27;;;5.03;;
76204;SDS011;64986;55.672;37.628;2023-07-09T02:49:46;11.23;;;5.53;;
76204;SDS011;64986;55.672;37.628;2023-07-09T02:52:11;9.50;;;5.32;;
76204;SDS011;64986;55.672;37.628;2023-07-09T02:54:36;11.90;;;5.75;;
76204;SDS011;64986;55.672;37.628;2023-07-09T02:57:02;13.20;;;5.85;;
76204;SDS011;64986;55.672;37.628;2023-07-09T02:59:27;10.40;;;5.65;;
76204;SDS011;64986;55.672;37.628;2023-07-09T03:01:54;8.55;;;5.60;;
76204;SDS011;64986;55.672;37.628;2023-07-09T03:04:19;13.30;;;5.72;;
76204;SDS011;64986;55.672;37.628;2023-07-09T03:06:47;17.75;;;5.97;;
76204;SDS011;64986;55.672;37.628;2023-07-09T03:09:13;15.18;;;5.93;;
76204;SDS011;64986;55.672;37.628;2023-07-09T03:11:38;11.88;;;5.53;;
76204;SDS011;64986;55.672;37.628;2023-07-09T03:14:04;9.43;;;5.60;;
76204;SDS011;64986;55.672;37.628;2023-07-09T03:16:32;12.25;;;5.60;;
76204;SDS011;64986;55.672;37.628;2023-07-09T03:18:58;10.68;;;5.70;;
76204;SDS011;64986;55.672;37.628;2023-07-09T03:21:24;10.52;;;5.47;;
76204;SDS011;64986;55.672;37.628;2023-07-09T03:23:49;11.20;;;6.22;;
76204;SDS011;64986;55.672;37.628;2023-07-09T03:26:15;10.93;;;5.43;;
76204;SDS011;64986;55.672;37.628;2023-07-09T03:28:40;9.05;;;5.55;;
76204;SDS011;64986;55.672;37.628;2023-07-09T03:31:06;9.02;;;5.25;;
76204;SDS011;64986;55.672;37.628;2023-07-09T03:33:31;9.77;;;5.72;;
76204;SDS011;64986;55.672;37.628;2023-07-09T03:35:56;7.50;;;4.65;;
76204;SDS011;64986;55.672;37.628;2023-07-09T03:38:22;8.82;;;5.28;;
76204;SDS011;64986;55.672;37.628;2023-07-09T03:40:53;8.50;;;5.13;;
76204;SDS011;64986;55.672;37.628;2023-07-09T03:43:19;10.32;;;4.68;;
76204;SDS011;64986;55.672;37.628;2023-07-09T03:45:45;12.30;;;4.78;;
76204;SDS011;64986;55.672;37.628;2023-07-09T03:48:11;13.70;;;5.03;;
76204;SDS011;64986;55.672;37.628;2023-07-09T03:50:36;7.38;;;4.28;;
76204;SDS011;64986;55.672;37.628;2023-07-09T03:53:03;8.90;;;4.35;;
76204;SDS011;64986;55.672;37.628;2023-07-09T03:55:28;10.63;;;4.75;;
76204;SDS011;64986;55.672;37.628;2023-07-09T03:57:54;6.43;;;4.20;;
76204;SDS011;64986;55.672;37.628;2023-07-09T04:00:19;11.40;;;4.07;;
76204;SDS011;64986;55.672;37.628;2023-07-09T04:02:45;6.55;;;4.13;;
76204;SDS011;64986;55.672;37.628;2023-07-09T04:05:10;8.52;;;4.10;;
76204;SDS011;64986;55.672;37.628;2023-07-09T04:07:36;6.20;;;4.07;;
76204;SDS011;64986;55.672;37.628;2023-07-09T04:10:02;5.47;;;3.90;;
76204;SDS011;64986;55.672;37.628;2023-07-09T04:12:29;6.03;;;3.65;;
76204;SDS011;64986;55.672;37.628;2023-07-09T04:14:54;4.63;;;3.20;;
76204;SDS011;64986;55.672;37.628;2023-07-09T04:17:20;5.75;;;3.33;;
76204;SDS011;64986;55.672;37.628;2023-07-09T04:19:48;5.78;;;3.80;;
76204;SDS011;64986;55.672;37.628;2023-07-09T04:22:14;7.35;;;3.05;;
76204;SDS011;64986;55.672;37.628;2023-07-09T04:24:40;7.35;;;3.13;;
76204;SDS011;64986;55.672;37.628;2023-07-09T04:27:05;3.67;;;3.10;;
76204;SDS011;64986;55.672;37.628;2023-07-09T04:29:31;7.00;;;3.60;;
76204;SDS011;64986;55.672;37.628;2023-07-09T04:32:01;6.82;;;3.58;;
76204;SDS011;64986;55.672;37.628;2023-07-09T04:34:27;4.78;;;3.30;;
76204;SDS011;64986;55.672;37.628;2023-07-09T04:36:53;6.90;;;3.50;;
76204;SDS011;64986;55.672;37.628;2023-07-09T04:39:18;8.93;;;3.15;;
76204;SDS011;64986;55.672;37.628;2023-07-09T04:41:44;3.42;;;2.83;;
76204;SDS011;64986;55.672;37.628;2023-07-09T04:44:09;6.10;;;3.40;;
76204;SDS011;64986;55.672;37.628;2023-07-09T04:46:35;7.03;;;3.28;;
76204;SDS011;64986;55.672;37.628;2023-07-09T04:49:00;7.95;;;3.42;;
76204;SDS011;64986;55.672;37.628;2023-07-09T04:51:26;7.07;;;3.22;;
76204;SDS011;64986;55.672;37.628;2023-07-09T04:53:52;4.55;;;3.40;;
76204;SDS011;64986;55.672;37.628;2023-07-09T04:56:18;3.97;;;2.78;;
76204;SDS011;64986;55.672;37.628;2023-07-09T04:58:44;5.43;;;3.10;;
76204;SDS011;64986;55.672;37.628;2023-07-09T05:01:10;6.10;;;2.72;;
76204;SDS011;64986;55.672;37.628;2023-07-09T05:03:35;5.03;;;2.88;;
76204;SDS011;64986;55.672;37.628;2023-07-09T05:06:01;3.83;;;3.05;;
76204;SDS011;64986;55.672;37.628;2023-07-09T05:08:27;7.28;;;3.58;;
76204;SDS011;64986;55.672;37.628;2023-07-09T05:10:52;3.30;;;2.63;;
76204;SDS011;64986;55.672;37.628;2023-07-09T05:13:18;3.92;;;2.38;;
76204;SDS011;64986;55.672;37.628;2023-07-09T05:15:45;3.65;;;2.88;;
76204;SDS011;64986;55.672;37.628;2023-07-09T05:18:12;4.63;;;2.70;;
76204;SDS011;64986;55.672;37.628;2023-07-09T05:20:39;4.13;;;2.88;;
76204;SDS011;64986;55.672;37.628;2023-07-09T05:23:05;5.78;;;3.00;;
76204;SDS011;64986;55.672;37.628;2023-07-09T05:25:31;3.47;;;2.70;;
76204;SDS011;64986;55.672;37.628;2023-07-09T05:27:57;7.22;;;3.00;;
76204;SDS011;64986;55.672;37.628;2023-07-09T05:30:22;3.70;;;2.30;;
76204;SDS011;64986;55.672;37.628;2023-07-09T05:32:48;4.32;;;2.63;;
76204;SDS011;64986;55.672;37.628;2023-07-09T05:35:13;2.55;;;2.08;;
76204;SDS011;64986;55.672;37.628;2023-07-09T05:37:39;5.13;;;2.50;;
76204;SDS011;64986;55.672;37.628;2023-07-09T05:40:05;3.38;;;2.13;;
76204;SDS011;64986;55.672;37.628;2023-07-09T05:42:32;3.78;;;2.20;;
76204;SDS011;64986;55.672;37.628;2023-07-09T05:44:58;2.97;;;1.90;;
76204;SDS011;64986;55.672;37.628;2023-07-09T05:47:24;2.03;;;1.58;;
76204;SDS011;64986;55.672;37.628;2023-07-09T05:49:51;2.35;;;1.73;;
76204;SDS011;64986;55.672;37.628;2023-07-09T05:52:17;1.77;;;1.27;;
76204;SDS011;64986;55.672;37.628;2023-07-09T05:54:44;4.40;;;2.20;;
76204;SDS011;64986;55.672;37.628;2023-07-09T05:57:10;5.00;;;1.88;;
76204;SDS011;64986;55.672;37.628;2023-07-09T05:59:36;2.70;;;1.92;;
76204;SDS011;64986;55.672;37.628;2023-07-09T06:02:02;1.90;;;1.60;;
76204;SDS011;64986;55.672;37.628;2023-07-09T06:04:28;1.88;;;1.60;;
76204;SDS011;64986;55.672;37.628;2023-07-09T06:06:56;3.35;;;2.00;;
76204;SDS011;64986;55.672;37.628;2023-07-09T06:09:22;7.88;;;2.20;;
76204;SDS011;64986;55.672;37.628;2023-07-09T06:11:48;6.68;;;2.08;;
76204;SDS011;64986;55.672;37.628;2023-07-09T06:14:13;3.47;;;1.73;;
76204;SDS011;64986;55.672;37.628;2023-07-09T06:16:42;4.45;;;1.92;;
76204;SDS011;64986;55.672;37.628;2023-07-09T06:19:08;4.32;;;2.60;;
76204;SDS011;64986;55.672;37.628;2023-07-09T06:21:34;2.38;;;1.55;;
76204;SDS011;64986;55.672;37.628;2023-07-09T06:23:59;2.40;;;1.95;;
76204;SDS011;64986;55.672;37.628;2023-07-09T06:26:25;3.13;;;1.80;;
76204;SDS011;64986;55.672;37.628;2023-07-09T06:28:50;3.13;;;2.00;;
76204;SDS011;64986;55.672;37.628;2023-07-09T06:31:16;4.22;;;2.03;;
76204;SDS011;64986;55.672;37.628;2023-07-09T06:33:42;2.63;;;1.83;;
76204;SDS011;64986;55.672;37.628;2023-07-09T06:36:08;2.40;;;1.90;;
76204;SDS011;64986;55.672;37.628;2023-07-09T06:38:33;2.40;;;2.00;;
76204;SDS011;64986;55.672;37.628;2023-07-09T06:40:59;5.60;;;2.00;;
76204;SDS011;64986;55.672;37.628;2023-07-09T06:43:24;3.03;;;1.98;;
76204;SDS011;64986;55.672;37.628;2023-07-09T06:48:17;4.65;;;1.95;;
76204;SDS011;64986;55.672;37.628;2023-07-09T06:50:42;3.28;;;1.92;;
76204;SDS011;64986;55.672;37.628;2023-07-09T06:53:08;5.38;;;1.98;;
76204;SDS011;64986;55.672;37.628;2023-07-09T06:55:34;2.65;;;1.88;;
76204;SDS011;64986;55.672;37.628;2023-07-09T06:58:00;2.15;;;1.88;;
76204;SDS011;64986;55.672;37.628;2023-07-09T07:00:26;5.18;;;2.35;;
76204;SDS011;64986;55.672;37.628;2023-07-09T07:02:51;6.50;;;2.47;;
76204;SDS011;64986;55.672;37.628;2023-07-09T07:05:17;4.32;;;2.33;;
76204;SDS011;64986;55.672;37.628;2023-07-09T07:07:43;6.80;;;2.40;;
76204;SDS011;64986;55.672;37.628;2023-07-09T07:10:09;3.65;;;2.50;;
76204;SDS011;64986;55.672;37.628;2023-07-09T07:12:45;7.55;;;2.03;;
76204;SDS011;64986;55.672;37.628;2023-07-09T07:15:13;5.32;;;2.65;;
76204;SDS011;64986;55.672;37.628;2023-07-09T07:17:40;2.08;;;1.58;;
76204;SDS011;64986;55.672;37.628;2023-07-09T07:20:07;3.22;;;2.60;;
76204;SDS011;64986;55.672;37.628;2023-07-09T07:22:34;2.35;;;1.95;;
76204;SDS011;64986;55.672;37.628;2023-07-09T07:25:00;4.05;;;2.58;;
76204;SDS011;64986;55.672;37.628;2023-07-09T07:27:25;3.78;;;2.33;;
76204;SDS011;64986;55.672;37.628;2023-07-09T07:29:51;5.05;;;2.28;;
76204;SDS011;64986;55.672;37.628;2023-07-09T07:32:17;4.32;;;2.45;;
76204;SDS011;64986;55.672;37.628;2023-07-09T07:34:42;2.92;;;2.00;;
76204;SDS011;64986;55.672;37.628;2023-07-09T07:37:08;3.40;;;2.03;;
76204;SDS011;64986;55.672;37.628;2023-07-09T07:39:33;5.82;;;2.40;;
76204;SDS011;64986;55.672;37.628;2023-07-09T07:41:59;10.85;;;2.50;;
76204;SDS011;64986;55.672;37.628;2023-07-09T07:44:24;5.80;;;3.13;;
76204;SDS011;64986;55.672;37.628;2023-07-09T07:46:50;5.40;;;4.20;;
76204;SDS011;64986;55.672;37.628;2023-07-09T07:49:15;4.88;;;3.80;;
76204;SDS011;64986;55.672;37.628;2023-07-09T07:51:41;7.82;;;4.63;;
76204;SDS011;64986;55.672;37.628;2023-07-09T07:54:07;7.40;;;3.40;;
76204;SDS011;64986;55.672;37.628;2023-07-09T07:56:35;3.17;;;2.17;;
76204;SDS011;64986;55.672;37.628;2023-07-09T07:59:04;8.07;;;5.38;;
76204;SDS011;64986;55.672;37.628;2023-07-09T08:01:29;4.53;;;3.40;;
76204;SDS011;64986;55.672;37.628;2023-07-09T08:03:55;5.53;;;2.40;;
76204;SDS011;64986;55.672;37.628;2023-07-09T08:06:20;4.18;;;2.40;;
76204;SDS011;64986;55.672;37.628;2023-07-09T08:08:46;5.75;;;2.67;;
76204;SDS011;64986;55.672;37.628;2023-07-09T08:11:12;3.15;;;1.80;;
76204;SDS011;64986;55.672;37.628;2023-07-09T08:13:39;5.15;;;2.00;;
76204;SDS011;64986;55.672;37.628;2023-07-09T08:16:05;3.40;;;2.03;;
76204;SDS011;64986;55.672;37.628;2023-07-09T08:18:32;5.18;;;2.05;;
76204;SDS011;64986;55.672;37.628;2023-07-09T08:20:58;5.15;;;2.17;;
76204;SDS011;64986;55.672;37.628;2023-07-09T08:23:24;5.72;;;2.28;;
76204;SDS011;64986;55.672;37.628;2023-07-09T08:25:53;18.17;;;3.58;;
76204;SDS011;64986;55.672;37.628;2023-07-09T08:28:21;2.05;;;1.85;;
76204;SDS011;64986;55.672;37.628;2023-07-09T08:30:47;2.45;;;1.90;;
76204;SDS011;64986;55.672;37.628;2023-07-09T08:33:12;4.05;;;2.00;;
76204;SDS011;64986;55.672;37.628;2023-07-09T08:35:38;5.20;;;2.05;;
76204;SDS011;64986;55.672;37.628;2023-07-09T08:38:03;1.92;;;1.73;;
76204;SDS011;64986;55.672;37.628;2023-07-09T08:40:29;2.78;;;1.52;;
76204;SDS011;64986;55.672;37.628;2023-07-09T08:42:57;3.85;;;2.28;;
76204;SDS011;64986;55.672;37.628;2023-07-09T08:48:13;4.20;;;1.70;;
76204;SDS011;64986;55.672;37.628;2023-07-09T08:50:47;4.05;;;2.00;;
76204;SDS011;64986;55.672;37.628;2023-07-09T08:53:29;8.30;;;2.67;;
76204;SDS011;64986;55.672;37.628;2023-07-09T08:55:59;2.92;;;1.90;;
76204;SDS011;64986;55.672;37.628;2023-07-09T08:58:25;3.05;;;1.65;;
76204;SDS011;64986;55.672;37.628;2023-07-09T09:00:57;2.55;;;1.50;;
76204;SDS011;64986;55.672;37.628;2023-07-09T09:03:35;3.83;;;1.85;;
76204;SDS011;64986;55.672;37.628;2023-07-09T09:06:12;3.45;;;1.60;;
76204;SDS011;64986;55.672;37.628;2023-07-09T09:08:40;3.33;;;2.97;;
76204;SDS011;64986;55.672;37.628;2023-07-09T09:14:42;5.22;;;2.22;;
76204;SDS011;64986;55.672;37.628;2023-07-09T09:17:11;3.30;;;2.00;;
76204;SDS011;64986;55.672;37.628;2023-07-09T09:19:48;7.57;;;2.10;;
76204;SDS011;64986;55.672;37.628;2023-07-09T09:22:30;2.75;;;1.85;;
76204;SDS011;64986;55.672;37.628;2023-07-09T09:30:15;5.43;;;1.75;;
76204;SDS011;64986;55.672;37.628;2023-07-09T09:32:47;3.15;;;2.15;;
76204;SDS011;64986;55.672;37.628;2023-07-09T09:35:17;2.35;;;1.83;;
76204;SDS011;64986;55.672;37.628;2023-07-09T09:37:51;3.88;;;2.20;;
76204;SDS011;64986;55.672;37.628;2023-07-09T09:40:18;5.18;;;3.70;;
76204;SDS011;64986;55.672;37.628;2023-07-09T09:42:52;4.38;;;2.40;;
76204;SDS011;64986;55.672;37.628;2023-07-09T09:45:21;4.70;;;2.40;;
76204;SDS011;64986;55.672;37.628;2023-07-09T09:47:51;5.57;;;2.08;;
76204;SDS011;64986;55.672;37.628;2023-07-09T09:50:18;3.95;;;1.90;;
76204;SDS011;64986;55.672;37.628;2023-07-09T09:52:48;3.20;;;1.95;;
76204;SDS011;64986;55.672;37.628;2023-07-09T09:55:22;2.55;;;1.60;;
76204;SDS011;64986;55.672;37.628;2023-07-09T09:57:50;1.80;;;1.60;;
76204;SDS011;64986;55.672;37.628;2023-07-09T10:00:18;3.17;;;2.00;;
76204;SDS011;64986;55.672;37.628;2023-07-09T10:02:48;3.90;;;1.70;;
76204;SDS011;64986;55.672;37.628;2023-07-09T10:05:15;3.42;;;1.90;;
76204;SDS011;64986;55.672;37.628;2023-07-09T10:07:50;1.77;;;1.65;;
76204;SDS011;64986;55.672;37.628;2023-07-09T10:10:25;3.20;;;2.00;;
76204;SDS011;64986;55.672;37.628;2023-07-09T10:13:15;3.08;;;2.10;;
76204;SDS011;64986;55.672;37.628;2023-07-09T10:16:01;2.80;;;1.92;;
76204;SDS011;64986;55.672;37.628;2023-07-09T10:27:18;4.95;;;2.53;;
76204;SDS011;64986;55.672;37.628;2023-07-09T10:36:24;2.72;;;2.17;;
76204;SDS011;64986;55.672;37.628;2023-07-09T10:41:27;2.70;;;2.00;;
76204;SDS011;64986;55.672;37.628;2023-07-09T10:43:59;2.53;;;1.98;;
76204;SDS011;64986;55.672;37.628;2023-07-09T10:46:31;2.28;;;1.85;;
76204;SDS011;64986;55.672;37.628;2023-07-09T10:49:00;3.83;;;1.70;;
76204;SDS011;64986;55.672;37.628;2023-07-09T10:51:52;6.80;;;2.30;;
76204;SDS011;64986;55.672;37.628;2023-07-09T10:54:39;4.00;;;1.90;;
76204;SDS011;64986;55.672;37.628;2023-07-09T10:59:43;7.97;;;1.70;;
76204;SDS011;64986;55.672;37.628;2023-07-09T11:02:16;1.92;;;1.65;;
76204;SDS011;64986;55.672;37.628;2023-07-09T11:05:04;4.30;;;1.90;;
76204;SDS011;64986;55.672;37.628;2023-07-09T11:07:38;2.50;;;2.08;;
76204;SDS011;64986;55.672;37.628;2023-07-09T11:10:30;2.95;;;1.83;;
76204;SDS011;64986;55.672;37.628;2023-07-09T11:12:59;2.20;;;1.80;;
76204;SDS011;64986;55.672;37.628;2023-07-09T11:15:32;3.55;;;2.25;;
76204;SDS011;64986;55.672;37.628;2023-07-09T11:18:02;3.83;;;1.85;;
76204;SDS011;64986;55.672;37.628;2023-07-09T11:20:35;4.38;;;1.70;;
76204;SDS011;64986;55.672;37.628;2023-07-09T11:23:19;3.35;;;1.77;;
76204;SDS011;64986;55.672;37.628;2023-07-09T11:25:48;2.58;;;1.65;;
76204;SDS011;64986;55.672;37.628;2023-07-09T11:28:32;3.85;;;1.85;;
76204;SDS011;64986;55.672;37.628;2023-07-09T11:31:04;4.18;;;2.13;;
76204;SDS011;64986;55.672;37.628;2023-07-09T11:33:49;4.15;;;2.22;;
76204;SDS011;64986;55.672;37.628;2023-07-09T11:36:28;4.93;;;2.30;;
76204;SDS011;64986;55.672;37.628;2023-07-09T11:38:55;2.42;;;1.80;;
76204;SDS011;64986;55.672;37.628;2023-07-09T11:44:04;2.65;;;1.67;;
76204;SDS011;64986;55.672;37.628;2023-07-09T11:49:36;4.35;;;1.67;;
76204;SDS011;64986;55.672;37.628;2023-07-09T11:52:36;1.95;;;1.70;;
76204;SDS011;64986;55.672;37.628;2023-07-09T11:55:40;3.20;;;2.30;;
76204;SDS011;64986;55.672;37.628;2023-07-09T11:58:04;3.53;;;1.92;;
76204;SDS011;64986;55.672;37.628;2023-07-09T12:00:37;2.15;;;1.65;;
76204;SDS011;64986;55.672;37.628;2023-07-09T12:03:06;3.42;;;1.80;;
76204;SDS011;64986;55.672;37.628;2023-07-09T12:05:36;3.85;;;1.80;;
76204;SDS011;64986;55.672;37.628;2023-07-09T12:08:02;2.55;;;1.88;;
76204;SDS011;64986;55.672;37.628;2023-07-09T12:10:32;3.00;;;2.17;;
76204;SDS011;64986;55.672;37.628;2023-07-09T12:12:59;3.92;;;2.08;;
76204;SDS011;64986;55.672;37.628;2023-07-09T12:15:27;3.70;;;1.80;;
76204;SDS011;64986;55.672;37.628;2023-07-09T12:20:21;2.15;;;1.40;;
76204;SDS011;64986;55.672;37.628;2023-07-09T12:22:47;2.13;;;1.70;;
76204;SDS011;64986;55.672;37.628;2023-07-09T12:25:46;3.85;;;2.38;;
76204;SDS011;64986;55.672;37.628;2023-07-09T12:28:04;2.88;;;1.92;;
76204;SDS011;64986;55.672;37.628;2023-07-09T12:30:32;3.38;;;1.63;;
76204;SDS011;64986;55.672;37.628;2023-07-09T12:32:58;3.67;;;2.00;;
76204;SDS011;64986;55.672;37.628;2023-07-09T12:35:24;3.83;;;2.05;;
76204;SDS011;64986;55.672;37.628;2023-07-09T12:37:53;2.47;;;1.75;;
76204;SDS011;64986;55.672;37.628;2023-07-09T12:40:22;3.40;;;2.10;;
76204;SDS011;64986;55.672;37.628;2023-07-09T12:42:53;9.00;;;4.93;;
76204;SDS011;64986;55.672;37.628;2023-07-09T12:45:20;18.17;;;4.90;;
76204;SDS011;64986;55.672;37.628;2023-07-09T12:47:47;4.95;;;2.50;;
76204;SDS011;64986;55.672;37.628;2023-07-09T12:50:18;9.52;;;3.47;;
76204;SDS011;64986;55.672;37.628;2023-07-09T12:52:54;4.53;;;2.00;;
76204;SDS011;64986;55.672;37.628;2023-07-09T12:55:25;3.30;;;2.03;;
76204;SDS011;64986;55.672;37.628;2023-07-09T12:57:54;5.35;;;2.08;;
76204;SDS011;64986;55.672;37.628;2023-07-09T13:00:21;4.50;;;1.90;;
76204;SDS011;64986;55.672;37.628;2023-07-09T13:02:51;4.05;;;2.00;;
76204;SDS011;64986;55.672;37.628;2023-07-09T13:05:22;5.20;;;2.53;;
76204;SDS011;64986;55.672;37.628;2023-07-09T13:07:50;4.18;;;2.20;;
76204;SDS011;64986;55.672;37.628;2023-07-09T13:10:26;6.90;;;2.35;;
76204;SDS011;64986;55.672;37.628;2023-07-09T13:12:55;6.65;;;3.40;;
76204;SDS011;64986;55.672;37.628;2023-07-09T13:15:26;10.18;;;3.75;;
76204;SDS011;64986;55.672;37.628;2023-07-09T13:18:01;6.95;;;3.13;;
76204;SDS011;64986;55.672;37.628;2023-07-09T13:20:29;7.60;;;2.80;;
76204;SDS011;64986;55.672;37.628;2023-07-09T13:22:57;5.43;;;2.38;;
76204;SDS011;64986;55.672;37.628;2023-07-09T13:25:23;7.75;;;2.35;;
76204;SDS011;64986;55.672;37.628;2023-07-09T13:27:49;4.95;;;2.35;;
76204;SDS011;64986;55.672;37.628;2023-07-09T13:30:15;4.28;;;2.10;;
76204;SDS011;64986;55.672;37.628;2023-07-09T13:32:41;3.38;;;2.20;;
76204;SDS011;64986;55.672;37.628;2023-07-09T13:35:13;4.70;;;2.35;;
76204;SDS011;64986;55.672;37.628;2023-07-09T13:37:41;4.38;;;2.38;;
76204;SDS011;64986;55.672;37.628;2023-07-09T13:40:09;3.95;;;2.42;;
76204;SDS011;64986;55.672;37.628;2023-07-09T13:42:37;7.38;;;2.17;;
76204;SDS011;64986;55.672;37.628;2023-07-09T13:45:03;3.38;;;2.10;;
76204;SDS011;64986;55.672;37.628;2023-07-09T13:47:29;2.50;;;2.20;;
76204;SDS011;64986;55.672;37.628;2023-07-09T13:49:54;3.47;;;2.08;;
76204;SDS011;64986;55.672;37.628;2023-07-09T13:52:21;4.18;;;2.20;;
76204;SDS011;64986;55.672;37.628;2023-07-09T13:54:50;3.25;;;1.85;;
76204;SDS011;64986;55.672;37.628;2023-07-09T13:57:20;3.95;;;2.10;;
76204;SDS011;64986;55.672;37.628;2023-07-09T13:59:46;3.78;;;2.00;;
76204;SDS011;64986;55.672;37.628;2023-07-09T14:02:34;4.47;;;2.00;;
76204;SDS011;64986;55.672;37.628;2023-07-09T14:04:59;5.03;;;2.22;;
76204;SDS011;64986;55.672;37.628;2023-07-09T14:07:34;4.63;;;2.25;;
76204;SDS011;64986;55.672;37.628;2023-07-09T14:10:02;5.82;;;2.10;;
76204;SDS011;64986;55.672;37.628;2023-07-09T14:12:29;3.13;;;2.00;;
76204;SDS011;64986;55.672;37.628;2023-07-09T14:14:57;2.78;;;2.45;;
76204;SDS011;64986;55.672;37.628;2023-07-09T14:17:25;4.78;;;2.50;;
76204;SDS011;64986;55.672;37.628;2023-07-09T14:19:54;2.72;;;1.90;;
76204;SDS011;64986;55.672;37.628;2023-07-09T14:22:32;4.32;;;1.88;;
76204;SDS011;64986;55.672;37.628;2023-07-09T14:24:59;3.63;;;1.92;;
76204;SDS011;64986;55.672;37.628;2023-07-09T14:27:26;3.60;;;1.83;;
76204;SDS011;64986;55.672;37.628;2023-07-09T14:29:53;6.72;;;2.00;;
76204;SDS011;64986;55.672;37.628;2023-07-09T14:32:38;3.78;;;1.75;;
76204;SDS011;64986;55.672;37.628;2023-07-09T14:35:24;3.97;;;1.73;;
76204;SDS011;64986;55.672;37.628;2023-07-09T14:37:52;5.15;;;2.38;;
76204;SDS011;64986;55.672;37.628;2023-07-09T14:40:19;6.68;;;2.55;;
76204;SDS011;64986;55.672;37.628;2023-07-09T14:42:49;3.47;;;2.00;;
76204;SDS011;64986;55.672;37.628;2023-07-09T14:45:16;2.30;;;2.00;;
76204;SDS011;64986;55.672;37.628;2023-07-09T14:47:49;2.65;;;1.85;;
76204;SDS011;64986;55.672;37.628;2023-07-09T14:50:16;2.50;;;1.88;;
76204;SDS011;64986;55.672;37.628;2023-07-09T14:52:43;3.15;;;1.70;;
76204;SDS011;64986;55.672;37.628;2023-07-09T14:55:14;5.75;;;2.25;;
76204;SDS011;64986;55.672;37.628;2023-07-09T14:57:41;5.30;;;2.10;;
76204;SDS011;64986;55.672;37.628;2023-07-09T15:00:11;4.75;;;1.80;;
76204;SDS011;64986;55.672;37.628;2023-07-09T15:02:41;2.80;;;1.45;;
76204;SDS011;64986;55.672;37.628;2023-07-09T15:05:13;5.35;;;1.70;;
76204;SDS011;64986;55.672;37.628;2023-07-09T15:07:40;3.13;;;1.77;;
76204;SDS011;64986;55.672;37.628;2023-07-09T15:10:06;2.50;;;1.88;;
76204;SDS011;64986;55.672;37.628;2023-07-09T15:12:36;1.85;;;1.50;;
76204;SDS011;64986;55.672;37.628;2023-07-09T15:15:22;2.75;;;1.63;;
76204;SDS011;64986;55.672;37.628;2023-07-09T15:17:54;4.53;;;2.00;;
76204;SDS011;64986;55.672;37.628;2023-07-09T15:20:29;2.80;;;1.63;;
76204;SDS011;64986;55.672;37.628;2023-07-09T15:22:55;3.38;;;1.90;;
76204;SDS011;64986;55.672;37.628;2023-07-09T15:25:24;2.67;;;1.90;;
76204;SDS011;64986;55.672;37.628;2023-07-09T15:27:50;5.75;;;1.70;;